메인 페이지
METAR-TAF:

METAR-TAF

공항 :

옐로나이프, 노스웨스트 준주, 캐나다

위도: 62-28N, 경도: 114-27W, 고도: 205m

현재 날씨관측

예보는 11분 전, 14:00시(UTC)에 발표되었습니다.
서남서6kt
온도 -28°C
습도 75%
기압 1012 hPa
시정: 24.1km
고도 4000ft 상공 구름 보통

METAR: CYZF 061400Z 25006KT 15SM SCT040 M28/M31 A2989 RMK SC3 SLP157

시각: 07:11 (14:11 UTC)

예보

예보는 2 시간 33분 전, 11:38시(UTC)에 발표되었습니다.
예보 대상 시간: 06일 12시부터 07일 12시까지 (UTC)
서남서8kt
시정: 10km
고도 5000ft 상공 구름 조금
06일 1400시부터 (UTC)
서남서10kt
시정: 10km
고도 4000ft 상공 구름 보통
일시적
06일 14시부터 06일 22시까지 (UTC)
시정: 8.0km
빙정
전환 중
06일 20시부터 06일 22시까지 (UTC)
서북서7kt
06일 2200시부터 (UTC)
서북서7kt
시정: 10km
고도 2000ft 상공 구름 보통
고도 6000ft 상공 구름 많음
일시적
06일 22시부터 07일 12시까지 (UTC)
시정: 6.4km
고도 2000ft 상공 구름 많음
고도 6000ft 상공 흐림
약한눈
전환 중
07일 10시부터 07일 12시까지 (UTC)
북서8kt

TAF: CYZF 061138Z 0612/0712 24008KT P6SM FEW050 FM061400 25010KT P6SM SCT040 TEMPO 0614/0622 5SM IC BECMG 0620/0622 29007KT FM062200 29007KT P6SM SCT020 BKN060 TEMPO 0622/0712 4SM -SN BKN020 OVC060 BECMG 0710/0712 32008KT RMK NXT FCST BY 061800Z

4,000개 이상의 공항 관측 자료 및 예보 (METAR 및 TAF 보고).

지도상에서 검색 가능한 기상관측소가 노란 점과 빨간 점으로 표시되어 있습니다.

기상관측소 명을 보려면 표시 위로 마우스를 이동하세요.

날씨 관측과 예보를 보려면 클릭하세요.

지도 변경 : 확대하려면 엑스 표시가 있는 녹색 버튼, 축소하려면 빼기 표시가 있는 녹색 버튼, 다음 페이지의 지도를 보려면 녹색 화살표를 클릭하세요.


METAR-TAF: